Time;durP1;ratioP1;P1;durP2;ratioP2;P2;SDS_P1;SDS_P2;PMS_P1;PMS_P2;Temp;Humidity;BMP_temperature;BMP_pressure;BME280_temperature;BME280_humidity;BME280_pressure;Samples;Min_cycle;Max_cycle;Signal;HPM_P1;HPM_P2
2021/03/08 00:00:34;;;;;;;39.63;27.02;;;5.30;80.30;;;;;;4915558;29;20030;-73
2021/03/08 00:03:01;;;;;;;36.97;25.92;;;5.30;80.30;;;;;;4916967;29;20079;-74
2021/03/08 00:05:27;;;;;;;45.10;27.70;;;5.20;80.20;;;;;;4914803;29;20542;-73
2021/03/08 00:07:53;;;;;;;38.55;26.85;;;5.20;80.30;;;;;;4915686;29;20523;-75
2021/03/08 00:10:20;;;;;;;40.45;28.23;;;5.20;80.30;;;;;;4916582;29;20397;-73
2021/03/08 00:12:47;;;;;;;44.63;30.23;;;5.20;80.40;;;;;;4915109;29;20066;-74
2021/03/08 00:15:14;;;;;;;40.75;29.20;;;5.30;80.60;;;;;;4916422;29;20055;-74
2021/03/08 00:17:41;;;;;;;39.60;26.52;;;5.30;80.50;;;;;;4916678;29;20024;-73
2021/03/08 00:20:09;;;;;;;37.17;26.90;;;5.30;80.60;;;;;;4914651;29;20032;-74
2021/03/08 00:22:36;;;;;;;38.33;26.77;;;5.20;80.40;;;;;;4917268;29;20028;-73
2021/03/08 00:25:02;;;;;;;38.60;26.98;;;5.20;80.60;;;;;;4916429;29;20413;-73
2021/03/08 00:27:27;;;;;;;38.38;26.58;;;5.30;80.70;;;;;;4915736;29;20064;-74
2021/03/08 00:29:53;;;;;;;34.65;25.35;;;5.30;80.70;;;;;;4916397;29;20115;-73
2021/03/08 00:32:18;;;;;;;37.38;26.40;;;5.30;80.90;;;;;;4916038;29;20032;-74
2021/03/08 00:34:44;;;;;;;41.10;28.35;;;5.30;80.80;;;;;;4915897;29;20040;-73
2021/03/08 00:37:09;;;;;;;41.08;27.00;;;5.30;80.90;;;;;;4916243;29;20034;-74
2021/03/08 00:39:35;;;;;;;39.63;26.65;;;5.40;81.00;;;;;;4915709;29;20031;-73
2021/03/08 00:42:00;;;;;;;32.70;24.75;;;5.40;80.90;;;;;;4915969;29;20103;-72
2021/03/08 00:44:26;;;;;;;39.80;28.08;;;5.40;80.80;;;;;;4914997;29;20045;-73
2021/03/08 00:46:53;;;;;;;36.58;26.95;;;5.40;81.00;;;;;;4916688;29;20056;-72
2021/03/08 00:49:19;;;;;;;38.83;27.73;;;5.40;81.00;;;;;;4915471;29;20032;-73
2021/03/08 00:51:44;;;;;;;37.28;26.10;;;5.40;81.10;;;;;;4915165;29;20031;-72
2021/03/08 00:54:10;;;;;;;39.35;28.08;;;5.40;81.00;;;;;;4915722;29;20362;-73
2021/03/08 00:56:35;;;;;;;37.72;26.08;;;5.30;81.10;;;;;;4916412;29;20492;-75
2021/03/08 00:59:01;;;;;;;41.60;27.58;;;5.30;81.10;;;;;;4916433;29;20381;-73
2021/03/08 01:01:27;;;;;;;42.22;26.85;;;5.30;81.40;;;;;;4914526;29;20039;-74
2021/03/08 01:03:52;;;;;;;39.75;26.55;;;5.30;81.50;;;;;;4916474;29;20020;-74
2021/03/08 01:06:18;;;;;;;39.20;26.60;;;5.30;81.50;;;;;;4916009;29;20032;-74
2021/03/08 01:08:43;;;;;;;36.40;26.30;;;5.30;81.70;;;;;;4915656;29;20114;-74
2021/03/08 01:11:09;;;;;;;39.30;26.52;;;5.30;81.80;;;;;;4916310;29;20109;-74
2021/03/08 01:13:35;;;;;;;41.85;26.40;;;5.40;81.90;;;;;;4919676;29;20028;-74
2021/03/08 01:16:01;;;;;;;47.30;28.75;;;5.40;81.90;;;;;;4918401;29;20032;-74
2021/03/08 01:18:26;;;;;;;40.55;26.77;;;5.40;81.90;;;;;;4918294;29;20028;-74
2021/03/08 01:20:52;;;;;;;37.45;26.63;;;5.40;81.70;;;;;;4918898;29;20032;-75
2021/03/08 01:23:17;;;;;;;42.78;27.65;;;5.40;81.70;;;;;;4918929;29;20024;-73
2021/03/08 01:25:43;;;;;;;44.40;29.42;;;5.40;81.70;;;;;;4918579;29;20028;-74
2021/03/08 01:28:09;;;;;;;38.67;26.60;;;5.40;81.60;;;;;;4919205;29;20047;-73
2021/03/08 01:30:37;;;;;;;41.50;27.73;;;5.40;81.60;;;;;;4917803;29;20452;-74
2021/03/08 01:33:03;;;;;;;43.42;27.80;;;5.30;81.50;;;;;;4918384;29;20132;-74
2021/03/08 01:35:29;;;;;;;41.03;27.88;;;5.30;81.70;;;;;;4919415;29;20032;-74
2021/03/08 01:37:55;;;;;;;37.70;26.58;;;5.30;81.80;;;;;;4919155;29;20031;-73
2021/03/08 01:40:23;;;;;;;40.22;28.75;;;5.40;82.10;;;;;;4918021;29;20068;-73
2021/03/08 01:42:49;;;;;;;41.10;28.33;;;5.40;82.10;;;;;;4919307;29;20459;-74
2021/03/08 01:45:16;;;;;;;41.90;28.60;;;5.40;82.20;;;;;;4918848;29;20082;-74
2021/03/08 01:47:44;;;;;;;41.92;28.88;;;5.40;82.40;;;;;;4919529;29;20024;-74
2021/03/08 01:50:20;;;;;;;43.42;28.65;;;5.40;82.30;;;;;;4918499;29;20040;-73
2021/03/08 01:52:46;;;;;;;43.00;29.20;;;5.40;82.50;;;;;;4918475;29;20028;-73
2021/03/08 01:55:12;;;;;;;41.42;29.58;;;5.40;82.30;;;;;;4917652;29;20028;-73
2021/03/08 01:57:39;;;;;;;41.92;28.40;;;5.30;82.20;;;;;;4918754;29;20107;-73
2021/03/08 02:00:06;;;;;;;39.85;28.10;;;5.30;82.30;;;;;;4919271;29;20028;-73
2021/03/08 02:02:31;;;;;;;42.60;29.30;;;5.30;82.50;;;;;;4918697;29;20038;-74
2021/03/08 02:04:57;;;;;;;44.83;30.20;;;5.30;82.40;;;;;;4917385;29;20107;-73
2021/03/08 02:07:23;;;;;;;43.28;30.20;;;5.30;82.70;;;;;;4918643;29;20079;-73
2021/03/08 02:09:48;;;;;;;48.63;29.50;;;5.30;82.60;;;;;;4918953;29;20044;-73
2021/03/08 02:12:37;;;;;;;44.55;31.30;;;5.30;82.60;;;;;;4918131;29;20370;-74
2021/03/08 02:15:30;;;;;;;41.45;29.20;;;5.20;82.70;;;;;;4919149;29;20028;-73
2021/03/08 02:18:09;;;;;;;42.95;28.65;;;5.30;82.70;;;;;;4919097;29;20048;-73
2021/03/08 02:20:50;;;;;;;46.28;29.67;;;5.30;82.50;;;;;;4916974;29;20455;-73
2021/03/08 02:23:35;;;;;;;39.55;26.67;;;5.30;82.60;;;;;;4918647;29;20462;-73
2021/03/08 02:26:12;;;;;;;43.90;30.23;;;5.30;82.50;;;;;;4916979;29;20122;-74
2021/03/08 02:29:02;;;;;;;42.45;29.13;;;5.20;82.50;;;;;;4917440;29;20071;-74
2021/03/08 02:31:30;;;;;;;42.25;29.15;;;5.10;82.50;;;;;;4918321;29;20031;-74
2021/03/08 02:34:02;;;;;;;46.33;30.98;;;5.10;82.50;;;;;;4918131;29;20024;-73
2021/03/08 02:36:32;;;;;;;48.80;30.90;;;5.10;82.70;;;;;;4918523;29;20090;-73
2021/03/08 02:39:05;;;;;;;41.45;29.02;;;5.00;82.80;;;;;;4917525;29;20091;-74
2021/03/08 02:41:33;;;;;;;44.25;30.73;;;5.10;83.00;;;;;;4916184;29;20029;-74
2021/03/08 02:44:07;;;;;;;46.50;29.75;;;5.10;82.90;;;;;;4918471;29;20039;-74
2021/03/08 02:46:36;;;;;;;43.85;29.00;;;5.20;82.70;;;;;;4918068;29;20099;-73
2021/03/08 02:49:08;;;;;;;45.22;29.30;;;5.20;82.50;;;;;;4916907;29;20040;-75
2021/03/08 02:51:42;;;;;;;47.13;29.25;;;5.20;82.40;;;;;;4918812;29;20028;-74
2021/03/08 02:54:09;;;;;;;43.03;30.05;;;5.10;82.50;;;;;;4917568;29;20061;-73
2021/03/08 02:56:37;;;;;;;49.03;31.23;;;5.20;82.60;;;;;;4918233;29;20532;-74
2021/03/08 02:59:06;;;;;;;48.38;32.78;;;5.20;82.70;;;;;;4918244;29;20024;-73
2021/03/08 03:01:34;;;;;;;47.53;31.58;;;5.20;82.80;;;;;;4916946;29;20383;-74
2021/03/08 03:04:01;;;;;;;45.30;30.85;;;5.20;83.00;;;;;;4918089;29;20048;-74
2021/03/08 03:06:31;;;;;;;50.45;32.63;;;5.20;83.00;;;;;;4917542;29;20487;-74
2021/03/08 03:08:58;;;;;;;43.72;30.42;;;5.20;82.90;;;;;;4917071;29;20052;-74
2021/03/08 03:11:26;;;;;;;47.78;31.95;;;5.20;82.80;;;;;;4917462;29;20103;-74
2021/03/08 03:13:54;;;;;;;48.15;33.60;;;5.20;82.90;;;;;;4916412;29;20028;-73
2021/03/08 03:16:21;;;;;;;49.70;32.50;;;5.30;82.90;;;;;;4915552;29;20040;-74
2021/03/08 03:18:52;;;;;;;47.25;32.35;;;5.30;82.90;;;;;;4916616;29;20039;-74
2021/03/08 03:21:19;;;;;;;47.65;33.38;;;5.20;82.90;;;;;;4915971;29;20492;-74
2021/03/08 03:23:48;;;;;;;49.35;34.28;;;5.20;83.00;;;;;;4917492;29;20032;-74
2021/03/08 03:26:15;;;;;;;48.70;32.90;;;5.20;82.90;;;;;;4915904;29;20022;-73
2021/03/08 03:28:42;;;;;;;47.13;31.77;;;5.20;83.00;;;;;;4916252;29;20024;-73
2021/03/08 03:31:08;;;;;;;52.03;34.42;;;5.20;83.10;;;;;;4916009;29;20115;-73
2021/03/08 03:33:34;;;;;;;52.08;34.83;;;5.10;83.20;;;;;;4916411;29;20024;-74
2021/03/08 03:36:00;;;;;;;52.17;34.85;;;5.20;83.40;;;;;;4916711;29;20060;-74
2021/03/08 03:38:27;;;;;;;54.03;34.72;;;5.20;83.30;;;;;;4915855;29;20024;-73
2021/03/08 03:40:53;;;;;;;47.33;33.50;;;5.10;83.20;;;;;;4916667;29;20031;-74
2021/03/08 03:43:19;;;;;;;50.72;35.00;;;5.10;83.20;;;;;;4916383;29;20048;-72
2021/03/08 03:45:44;;;;;;;50.85;34.15;;;5.10;83.50;;;;;;4917325;29;20654;-72
2021/03/08 03:48:10;;;;;;;51.67;34.80;;;5.10;83.60;;;;;;4915756;29;20020;-72
2021/03/08 03:50:37;;;;;;;52.88;34.38;;;5.10;83.70;;;;;;4916047;29;20099;-72
2021/03/08 03:53:06;;;;;;;52.97;34.38;;;5.10;83.70;;;;;;4916786;29;20032;-72
2021/03/08 03:55:32;;;;;;;49.75;34.30;;;5.10;83.70;;;;;;4914940;29;20028;-72
2021/03/08 03:58:29;;;;;;;49.38;34.05;;;5.10;84.00;;;;;;4915232;29;20469;-73
2021/03/08 04:01:07;;;;;;;52.38;33.60;;;5.10;83.90;;;;;;4916990;29;20515;-73
2021/03/08 04:03:42;;;;;;;46.08;31.30;;;5.10;83.70;;;;;;4915467;29;20024;-73
2021/03/08 04:06:08;;;;;;;53.35;33.72;;;5.10;83.70;;;;;;4915523;29;20036;-74
2021/03/08 04:08:36;;;;;;;49.40;34.78;;;5.10;84.00;;;;;;4916402;29;20048;-74
2021/03/08 04:11:06;;;;;;;50.78;33.58;;;5.10;83.80;;;;;;4916809;29;20099;-74
2021/03/08 04:13:33;;;;;;;47.03;32.88;;;5.00;83.90;;;;;;4917014;29;20104;-74
2021/03/08 04:16:00;;;;;;;49.38;34.38;;;5.00;84.10;;;;;;4915700;29;20028;-75
2021/03/08 04:18:28;;;;;;;56.70;36.83;;;5.00;84.10;;;;;;4915869;29;20028;-74
2021/03/08 04:20:57;;;;;;;52.92;34.20;;;5.00;84.10;;;;;;4915883;29;20028;-75
2021/03/08 04:23:23;;;;;;;45.97;32.45;;;5.10;84.20;;;;;;4915227;29;20116;-74
2021/03/08 04:25:49;;;;;;;43.70;31.17;;;5.10;84.20;;;;;;4915774;29;20452;-73
2021/03/08 04:28:16;;;;;;;52.55;33.17;;;5.10;84.10;;;;;;4916427;29;20032;-73
2021/03/08 04:30:44;;;;;;;48.20;34.47;;;5.10;84.20;;;;;;4915647;29;20040;-73
2021/03/08 04:33:11;;;;;;;47.33;32.78;;;5.10;84.20;;;;;;4915643;29;20095;-74
2021/03/08 04:35:37;;;;;;;48.65;33.83;;;5.10;84.20;;;;;;4915460;29;20050;-74
2021/03/08 04:38:05;;;;;;;50.05;33.72;;;5.10;84.20;;;;;;4916404;29;20024;-74
2021/03/08 04:40:32;;;;;;;52.33;33.83;;;5.20;84.30;;;;;;4914454;29;20020;-74
2021/03/08 04:42:58;;;;;;;47.35;32.95;;;5.10;84.20;;;;;;4916279;29;20401;-74
2021/03/08 04:45:24;;;;;;;49.53;33.83;;;5.20;84.30;;;;;;4897391;29;20020;-73
2021/03/08 04:47:51;;;;;;;54.80;34.55;;;5.20;84.20;;;;;;4898315;29;20591;-73
2021/03/08 04:50:17;;;;;;;48.80;34.40;;;5.10;84.10;;;;;;4901142;29;20501;-73
2021/03/08 04:52:47;;;;;;;48.33;32.03;;;5.10;84.20;;;;;;4900422;29;20024;-73
2021/03/08 04:55:14;;;;;;;50.03;33.50;;;5.10;84.30;;;;;;4899993;29;20059;-73
2021/03/08 04:57:40;;;;;;;52.70;34.08;;;5.10;84.40;;;;;;4900307;29;20032;-74
2021/03/08 05:00:07;;;;;;;50.38;34.03;;;5.10;84.40;;;;;;4900116;29;20112;-74
2021/03/08 05:02:35;;;;;;;48.08;33.38;;;5.10;84.50;;;;;;4899302;29;20550;-73
2021/03/08 05:05:04;;;;;;;52.38;35.70;;;5.10;84.50;;;;;;4900242;29;20169;-74
2021/03/08 05:07:30;;;;;;;50.55;33.58;;;5.10;84.50;;;;;;4898860;29;20072;-73
2021/03/08 05:10:00;;;;;;;51.03;33.55;;;5.10;84.60;;;;;;4901269;29;20548;-73
2021/03/08 05:12:28;;;;;;;51.53;33.00;;;5.10;84.60;;;;;;4899381;29;20120;-73
2021/03/08 05:14:56;;;;;;;49.70;33.80;;;5.10;84.90;;;;;;4901020;29;20029;-74
2021/03/08 05:17:23;;;;;;;50.03;34.25;;;5.10;84.80;;;;;;4916484;29;20059;-73
2021/03/08 05:19:50;;;;;;;48.00;33.58;;;5.10;85.10;;;;;;4919934;29;20126;-72
2021/03/08 05:22:16;;;;;;;46.60;33.70;;;5.00;84.90;;;;;;4918510;29;20083;-73
2021/03/08 05:24:52;;;;;;;47.55;32.30;;;5.10;84.90;;;;;;4918305;29;20034;-74
2021/03/08 05:27:18;;;;;;;50.25;32.97;;;5.00;85.00;;;;;;4916807;29;20020;-77
2021/03/08 05:29:46;;;;;;;51.97;33.70;;;5.00;85.00;;;;;;4908021;29;20042;-76
2021/03/08 05:32:19;;;;;;;50.80;34.55;;;5.00;85.00;;;;;;4917685;29;20036;-75
2021/03/08 05:34:48;;;;;;;52.60;33.95;;;5.00;85.00;;;;;;4917583;29;20028;-72
2021/03/08 05:37:17;;;;;;;53.88;32.97;;;5.00;84.90;;;;;;4916721;29;20028;-75
2021/03/08 05:39:44;;;;;;;45.83;33.22;;;5.00;84.90;;;;;;4919517;29;20035;-73
2021/03/08 05:42:14;;;;;;;46.30;32.30;;;5.00;84.90;;;;;;4919140;29;20033;-72
2021/03/08 05:44:59;;;;;;;50.20;33.33;;;5.10;85.00;;;;;;4917175;29;20028;-73
2021/03/08 05:47:52;;;;;;;46.70;31.52;;;5.10;85.00;;;;;;4918195;29;20421;-73
2021/03/08 05:50:35;;;;;;;47.33;32.42;;;5.10;85.00;;;;;;4916964;29;20040;-73
2021/03/08 05:53:35;;;;;;;49.08;32.97;;;5.10;85.00;;;;;;4919451;29;20028;-73
2021/03/08 05:56:41;;;;;;;46.28;29.58;;;5.10;85.00;;;;;;4917362;29;20032;-73
2021/03/08 05:59:34;;;;;;;53.85;38.80;;;5.10;84.90;;;;;;4917640;29;20028;-74
2021/03/08 06:02:32;;;;;;;46.83;32.97;;;5.10;84.90;;;;;;4918838;29;20032;-74
2021/03/08 06:05:09;;;;;;;48.72;33.10;;;5.10;84.90;;;;;;4918314;29;20043;-73
2021/03/08 06:07:57;;;;;;;46.70;32.60;;;5.10;84.80;;;;;;4917467;29;20063;-73
2021/03/08 06:10:26;;;;;;;48.67;34.08;;;5.10;84.80;;;;;;4918505;29;20135;-74
2021/03/08 06:12:54;;;;;;;47.35;33.10;;;5.20;84.90;;;;;;4916867;29;20031;-74
2021/03/08 06:15:22;;;;;;;45.33;33.13;;;5.30;84.90;;;;;;4918702;29;20076;-72
2021/03/08 06:17:50;;;;;;;50.67;38.28;;;5.20;84.70;;;;;;4918203;29;20028;-74
2021/03/08 06:20:18;;;;;;;48.95;32.92;;;5.30;84.60;;;;;;4918661;29;20028;-74
2021/03/08 06:22:44;;;;;;;52.30;33.38;;;5.30;84.60;;;;;;4919061;29;20060;-74
2021/03/08 06:25:12;;;;;;;46.47;32.40;;;5.30;84.60;;;;;;4917586;29;20028;-75
2021/03/08 06:27:38;;;;;;;43.00;32.38;;;5.40;84.50;;;;;;4918839;29;20025;-74
2021/03/08 06:30:04;;;;;;;46.05;32.55;;;5.30;84.40;;;;;;4917256;29;20039;-73
2021/03/08 06:32:30;;;;;;;52.92;35.00;;;5.40;84.40;;;;;;4916885;29;20080;-72
2021/03/08 06:34:56;;;;;;;49.90;32.70;;;5.40;84.30;;;;;;4917474;29;20043;-73
2021/03/08 06:37:25;;;;;;;49.25;33.45;;;5.40;84.30;;;;;;4916779;29;20020;-73
2021/03/08 06:39:51;;;;;;;44.83;31.90;;;5.40;84.20;;;;;;4917587;29;20394;-73
2021/03/08 06:42:17;;;;;;;46.88;31.77;;;5.50;84.30;;;;;;4918299;29;20028;-74
2021/03/08 06:44:47;;;;;;;46.97;32.22;;;5.50;84.20;;;;;;4918637;29;20028;-75
2021/03/08 06:47:13;;;;;;;50.63;34.88;;;5.50;84.10;;;;;;4916426;29;20024;-76
2021/03/08 06:49:39;;;;;;;44.28;32.03;;;5.50;83.90;;;;;;4912566;29;20066;-76
2021/03/08 06:52:10;;;;;;;45.65;31.85;;;5.50;84.00;;;;;;4919836;29;20055;-74
2021/03/08 06:54:44;;;;;;;47.92;33.17;;;5.60;84.30;;;;;;4915817;29;20130;-75
2021/03/08 06:57:26;;;;;;;46.28;33.35;;;5.60;84.40;;;;;;4916137;29;20596;-74
2021/03/08 06:59:53;;;;;;;55.58;39.70;;;5.60;84.70;;;;;;4915903;29;20032;-74
2021/03/08 07:02:20;;;;;;;45.83;32.72;;;5.60;84.90;;;;;;4915642;29;20025;-75
2021/03/08 07:04:45;;;;;;;49.33;33.45;;;5.70;85.00;;;;;;4917623;29;20024;-72
2021/03/08 07:07:13;;;;;;;50.22;34.55;;;5.70;85.00;;;;;;4915270;29;20028;-74
2021/03/08 07:09:53;;;;;;;46.47;33.70;;;5.80;84.70;;;;;;4917006;29;20055;-75
2021/03/08 07:12:20;;;;;;;51.40;34.45;;;5.90;84.30;;;;;;4916025;29;20536;-75
2021/03/08 07:14:59;;;;;;;47.58;34.22;;;6.00;84.00;;;;;;4916858;29;20032;-76
2021/03/08 07:17:37;;;;;;;44.45;31.85;;;6.10;83.60;;;;;;4916089;29;20144;-73
2021/03/08 07:20:08;;;;;;;48.45;34.03;;;6.20;83.20;;;;;;4916500;29;20370;-72
2021/03/08 07:22:44;;;;;;;48.50;35.42;;;6.30;83.10;;;;;;4917220;29;20080;-74
2021/03/08 07:25:29;;;;;;;45.40;33.35;;;6.30;82.80;;;;;;4917044;29;20024;-71
2021/03/08 07:27:59;;;;;;;48.75;32.90;;;6.30;82.40;;;;;;4916357;29;20025;-70
2021/03/08 07:30:33;;;;;;;50.13;34.47;;;6.30;82.40;;;;;;4916428;29;20789;-71
2021/03/08 07:33:03;;;;;;;46.70;33.13;;;6.30;82.60;;;;;;4916325;29;20064;-73
2021/03/08 07:35:46;;;;;;;44.65;32.03;;;6.40;82.40;;;;;;4916034;29;20028;-71
2021/03/08 07:38:32;;;;;;;49.53;32.72;;;6.50;82.60;;;;;;4916408;29;20042;-71
2021/03/08 07:41:14;;;;;;;45.67;31.90;;;6.60;82.30;;;;;;4917117;29;20080;-73
2021/03/08 07:43:42;;;;;;;48.45;33.20;;;6.60;82.00;;;;;;4916601;29;20103;-73
2021/03/08 07:46:31;;;;;;;52.33;33.63;;;6.60;81.80;;;;;;4915951;29;20498;-73
2021/03/08 07:48:59;;;;;;;45.50;33.13;;;6.80;81.70;;;;;;4916671;29;20024;-73
2021/03/08 07:51:25;;;;;;;45.72;32.78;;;6.80;81.70;;;;;;4915556;29;20091;-71
2021/03/08 07:54:05;;;;;;;48.13;34.17;;;6.90;81.80;;;;;;4915457;29;20020;-71
2021/03/08 07:56:31;;;;;;;44.03;33.25;;;7.10;81.20;;;;;;4916003;29;20020;-72
2021/03/08 07:58:57;;;;;;;45.45;32.42;;;7.20;80.20;;;;;;4916890;29;20032;-72
2021/03/08 08:01:24;;;;;;;49.80;34.08;;;7.20;79.80;;;;;;4916759;29;20025;-73
2021/03/08 08:03:49;;;;;;;44.45;32.33;;;7.30;79.70;;;;;;4914776;29;20028;-72
2021/03/08 08:06:21;;;;;;;45.30;32.67;;;7.40;79.50;;;;;;4922506;29;20098;-72
2021/03/08 08:08:51;;;;;;;42.83;32.03;;;7.40;78.30;;;;;;4934848;29;20055;-74
2021/03/08 08:11:21;;;;;;;45.53;34.38;;;7.40;78.70;;;;;;4915156;29;20429;-72
2021/03/08 08:14:01;;;;;;;46.33;34.03;;;7.40;78.80;;;;;;4916546;29;20024;-73
2021/03/08 08:16:32;;;;;;;46.47;32.72;;;7.50;78.30;;;;;;4915996;29;20027;-74
2021/03/08 08:19:05;;;;;;;44.97;33.07;;;7.60;78.10;;;;;;4915406;29;20031;-74
2021/03/08 08:21:37;;;;;;;42.88;32.25;;;7.60;78.10;;;;;;4915574;29;20123;-72
2021/03/08 08:24:26;;;;;;;44.83;32.55;;;7.70;78.10;;;;;;4915599;29;20091;-71
2021/03/08 08:26:56;;;;;;;44.40;31.80;;;7.80;77.90;;;;;;4915214;29;20039;-71
2021/03/08 08:29:23;;;;;;;50.42;33.50;;;7.80;77.50;;;;;;4915162;29;20131;-72
2021/03/08 08:31:56;;;;;;;46.38;31.67;;;7.80;77.60;;;;;;4898562;29;20028;-70
2021/03/08 08:34:38;;;;;;;40.38;31.13;;;7.90;78.30;;;;;;4915904;29;20115;-74
2021/03/08 08:37:18;;;;;;;45.35;31.88;;;7.90;77.90;;;;;;4914431;29;20032;-72
2021/03/08 08:39:50;;;;;;;49.60;33.42;;;7.90;77.30;;;;;;4899087;29;20447;-71
2021/03/08 08:42:17;;;;;;;54.88;34.08;;;7.90;77.40;;;;;;4915770;29;20064;-72
2021/03/08 08:44:45;;;;;;;44.20;32.08;;;7.90;77.90;;;;;;4915575;29;20039;-71
2021/03/08 08:47:19;;;;;;;43.65;32.55;;;7.90;77.20;;;;;;4915063;29;20107;-72
2021/03/08 08:49:50;;;;;;;42.60;33.33;;;7.80;77.80;;;;;;4915545;29;20040;-71
2021/03/08 08:52:17;;;;;;;51.90;33.67;;;7.80;77.90;;;;;;4914333;29;20029;-74
2021/03/08 08:54:50;;;;;;;45.78;34.47;;;7.90;77.70;;;;;;4915796;29;20028;-73
2021/03/08 08:57:19;;;;;;;45.97;33.88;;;7.80;77.30;;;;;;4915478;29;20548;-72
2021/03/08 08:59:51;;;;;;;43.83;32.72;;;7.90;77.50;;;;;;4915104;29;20044;-72
2021/03/08 09:02:22;;;;;;;46.25;33.10;;;8.00;77.80;;;;;;4915574;29;20168;-69
2021/03/08 09:04:48;;;;;;;45.88;31.85;;;8.00;76.90;;;;;;4914308;29;20067;-73
2021/03/08 09:07:21;;;;;;;44.90;32.83;;;8.20;76.80;;;;;;4915004;29;20076;-75
2021/03/08 09:09:47;;;;;;;48.08;32.05;;;8.20;76.80;;;;;;4913928;29;20140;-72
2021/03/08 09:12:32;;;;;;;45.30;32.22;;;8.20;76.30;;;;;;4915663;29;20111;-71
2021/03/08 09:15:07;;;;;;;44.97;30.90;;;8.10;76.10;;;;;;4915185;29;20021;-81
2021/03/08 09:17:44;;;;;;;45.13;32.75;;;8.10;75.90;;;;;;4915833;29;20039;-76
2021/03/08 09:20:12;;;;;;;43.67;32.58;;;8.20;76.50;;;;;;4915757;29;20032;-77
2021/03/08 09:22:57;;;;;;;44.40;32.53;;;8.20;76.30;;;;;;4915377;29;20485;-73
2021/03/08 09:25:25;;;;;;;41.60;31.98;;;8.20;75.80;;;;;;4914294;29;20020;-74
2021/03/08 09:28:10;;;;;;;44.58;31.08;;;8.30;76.20;;;;;;4915457;29;20067;-77
2021/03/08 09:30:38;;;;;;;40.80;29.98;;;8.30;75.80;;;;;;4915373;29;20392;-74
2021/03/08 09:33:18;;;;;;;41.63;31.13;;;8.30;75.80;;;;;;4917009;29;20028;-74
2021/03/08 09:35:44;;;;;;;41.92;31.10;;;8.30;75.70;;;;;;4919305;29;20024;-75
2021/03/08 09:38:12;;;;;;;42.50;31.67;;;8.40;75.80;;;;;;4919210;29;20047;-76
2021/03/08 09:40:43;;;;;;;42.30;29.73;;;8.40;75.80;;;;;;4918142;29;20358;-76
2021/03/08 09:43:23;;;;;;;39.13;30.75;;;8.60;75.80;;;;;;4918774;29;20032;-73
2021/03/08 09:46:00;;;;;;;44.63;30.98;;;8.70;75.00;;;;;;4918210;29;20039;-75
2021/03/08 09:48:26;;;;;;;40.35;29.30;;;8.60;74.60;;;;;;4918749;29;20039;-76
2021/03/08 09:50:52;;;;;;;45.53;30.17;;;8.60;75.00;;;;;;4918649;29;20044;-76
2021/03/08 09:53:17;;;;;;;42.13;31.15;;;8.50;75.00;;;;;;4917696;29;20016;-78
2021/03/08 09:55:43;;;;;;;43.58;31.83;;;8.50;75.00;;;;;;4917472;29;20354;-77
2021/03/08 09:58:15;;;;;;;43.30;30.75;;;8.50;74.90;;;;;;4917443;29;20039;-73
2021/03/08 10:00:42;;;;;;;42.28;30.75;;;8.60;75.20;;;;;;4919062;29;20078;-74
2021/03/08 10:03:08;;;;;;;44.25;30.98;;;8.70;74.90;;;;;;4918524;29;20497;-73
2021/03/08 10:05:45;;;;;;;40.03;30.10;;;8.70;75.40;;;;;;4919168;29;20026;-77
2021/03/08 10:08:13;;;;;;;46.47;31.02;;;8.80;75.50;;;;;;4918594;29;20056;-76
2021/03/08 10:10:50;;;;;;;41.40;30.27;;;8.90;75.00;;;;;;4918315;29;20044;-74
2021/03/08 10:13:17;;;;;;;44.08;29.77;;;9.10;74.70;;;;;;4917340;29;20389;-75
2021/03/08 10:15:56;;;;;;;41.30;29.63;;;9.10;74.40;;;;;;4918933;29;20027;-75
2021/03/08 10:18:27;;;;;;;44.17;30.58;;;9.30;74.50;;;;;;4917696;29;20032;-74
2021/03/08 10:20:56;;;;;;;45.10;29.97;;;9.30;74.10;;;;;;4917508;29;20048;-74
2021/03/08 10:23:32;;;;;;;39.75;27.48;;;9.40;74.00;;;;;;4918117;29;20413;-74
2021/03/08 10:26:06;;;;;;;39.75;29.20;;;9.40;74.30;;;;;;4916682;29;20024;-74
2021/03/08 10:28:40;;;;;;;43.05;29.70;;;9.40;73.90;;;;;;4916910;29;20055;-75
2021/03/08 10:31:15;;;;;;;41.58;28.50;;;9.30;73.70;;;;;;4916745;29;20051;-75
2021/03/08 10:33:44;;;;;;;40.85;29.45;;;9.30;74.00;;;;;;4918677;29;20071;-75
2021/03/08 10:36:10;;;;;;;44.05;28.48;;;9.40;74.20;;;;;;4918184;29;20055;-75
2021/03/08 10:38:36;;;;;;;41.78;29.88;;;9.50;73.90;;;;;;4916531;29;20032;-75
2021/03/08 10:41:04;;;;;;;37.58;28.25;;;9.50;73.80;;;;;;4918537;29;20109;-75
2021/03/08 10:43:31;;;;;;;40.88;28.27;;;9.60;73.50;;;;;;4917916;29;20076;-75
2021/03/08 10:46:00;;;;;;;40.00;28.70;;;9.70;73.20;;;;;;4916353;29;20047;-74
2021/03/08 10:48:27;;;;;;;43.10;29.60;;;9.70;73.60;;;;;;4916647;29;20095;-75
2021/03/08 10:50:54;;;;;;;35.05;27.05;;;9.70;73.10;;;;;;4917989;29;20028;-76
2021/03/08 10:53:21;;;;;;;35.92;27.05;;;9.90;73.10;;;;;;4917140;29;20409;-74
2021/03/08 10:55:48;;;;;;;37.20;28.35;;;10.00;72.60;;;;;;4918226;29;20028;-74
2021/03/08 10:58:14;;;;;;;35.90;26.60;;;10.00;72.10;;;;;;4916165;29;20496;-74
2021/03/08 11:00:41;;;;;;;40.83;28.15;;;10.00;72.00;;;;;;4917608;29;20024;-74
2021/03/08 11:03:36;;;;;;;33.92;26.42;;;10.10;72.50;;;;;;4917923;29;20055;-73
2021/03/08 11:06:11;;;;;;;36.33;27.00;;;10.20;72.60;;;;;;4917425;29;20115;-74
2021/03/08 11:08:40;;;;;;;38.22;27.95;;;10.20;72.00;;;;;;4917661;29;20095;-74
2021/03/08 11:11:20;;;;;;;34.88;26.23;;;10.30;72.20;;;;;;4916461;29;20040;-74
2021/03/08 11:13:47;;;;;;;35.42;27.63;;;10.30;72.00;;;;;;4915875;29;20484;-74
2021/03/08 11:16:14;;;;;;;38.00;28.23;;;10.40;71.70;;;;;;4915771;29;20024;-74
2021/03/08 11:18:41;;;;;;;34.35;26.30;;;10.30;71.50;;;;;;4917765;29;20016;-74
2021/03/08 11:21:33;;;;;;;36.33;26.95;;;10.30;72.30;;;;;;4917033;29;20024;-73
2021/03/08 11:24:13;;;;;;;;;;;10.30;71.40;;;;;;4908708;29;20044;-74
2021/03/08 11:26:39;;;;;;;35.95;27.25;;;10.30;71.40;;;;;;4917365;29;19914;-74
2021/03/08 11:29:05;;;;;;;39.20;30.45;;;10.20;71.50;;;;;;4916798;29;20504;-75
2021/03/08 11:31:30;;;;;;;41.50;29.23;;;10.20;71.90;;;;;;4915748;29;20028;-74
2021/03/08 11:33:56;;;;;;;39.28;29.00;;;10.20;71.60;;;;;;4917382;29;20183;-75
2021/03/08 11:36:34;;;;;;;37.80;29.50;;;10.20;71.20;;;;;;4916335;29;20051;-75
2021/03/08 11:39:07;;;;;;;43.90;30.25;;;10.30;71.20;;;;;;4915834;29;20024;-75
2021/03/08 11:41:34;;;;;;;38.95;28.83;;;10.40;71.00;;;;;;4915236;29;20031;-74
2021/03/08 11:44:00;;;;;;;44.28;31.13;;;10.50;70.90;;;;;;4915945;29;20036;-75
2021/03/08 11:46:25;;;;;;;44.58;31.98;;;10.50;70.60;;;;;;4915650;29;20028;-75
2021/03/08 11:48:59;;;;;;;39.08;29.23;;;10.60;71.00;;;;;;4915498;29;20075;-75
2021/03/08 11:51:25;;;;;;;40.15;28.45;;;10.60;70.80;;;;;;4916753;29;20036;-75
2021/03/08 11:53:50;;;;;;;35.08;28.27;;;10.60;71.00;;;;;;4917470;29;20434;-76
2021/03/08 11:56:16;;;;;;;36.22;28.35;;;10.60;70.00;;;;;;4915788;29;20077;-74
2021/03/08 11:58:42;;;;;;;38.67;29.50;;;10.50;70.00;;;;;;4915580;29;20601;-74
2021/03/08 12:01:07;;;;;;;38.40;30.15;;;10.40;70.30;;;;;;4916749;29;20032;-74
2021/03/08 12:03:33;;;;;;;43.22;29.85;;;10.20;70.40;;;;;;4914902;29;20059;-76
2021/03/08 12:05:58;;;;;;;39.90;28.73;;;10.10;71.80;;;;;;4916941;29;20034;-74
2021/03/08 12:08:24;;;;;;;39.13;29.80;;;10.00;71.30;;;;;;4913931;29;20052;-75
2021/03/08 12:10:49;;;;;;;42.60;30.30;;;10.00;71.80;;;;;;4916935;29;20048;-74
2021/03/08 12:13:15;;;;;;;41.55;29.50;;;9.90;72.00;;;;;;4914790;29;20552;-74
2021/03/08 12:15:42;;;;;;;44.60;32.03;;;9.90;72.50;;;;;;4914933;29;20035;-75
2021/03/08 12:18:07;;;;;;;40.55;29.65;;;9.80;72.60;;;;;;4915254;29;20115;-75
2021/03/08 12:20:33;;;;;;;40.67;30.38;;;9.90;72.80;;;;;;4915019;29;20131;-74
2021/03/08 12:22:58;;;;;;;41.13;30.77;;;10.00;72.70;;;;;;4915812;29;20507;-75
2021/03/08 12:25:24;;;;;;;44.00;30.67;;;10.10;72.60;;;;;;4916103;29;20444;-74
2021/03/08 12:27:49;;;;;;;38.03;30.40;;;10.30;72.20;;;;;;4915521;29;20381;-75
2021/03/08 12:30:15;;;;;;;42.65;30.85;;;10.40;70.80;;;;;;4915340;29;20040;-75
2021/03/08 12:32:41;;;;;;;39.63;29.00;;;10.30;70.50;;;;;;4916277;29;20027;-74
2021/03/08 12:35:07;;;;;;;40.97;29.48;;;10.30;70.90;;;;;;4915520;29;20029;-74
2021/03/08 12:37:33;;;;;;;38.97;29.48;;;10.30;71.20;;;;;;4914199;29;20448;-74
2021/03/08 12:39:59;;;;;;;40.72;28.95;;;10.30;71.10;;;;;;4916611;29;20107;-74
2021/03/08 12:42:25;;;;;;;40.78;29.92;;;10.30;71.10;;;;;;4914922;29;20024;-74
2021/03/08 12:44:50;;;;;;;38.85;29.50;;;10.30;71.10;;;;;;4915882;29;20103;-75
2021/03/08 12:47:16;;;;;;;39.83;30.55;;;10.30;70.90;;;;;;4916224;29;20024;-74
2021/03/08 12:49:41;;;;;;;41.13;31.17;;;10.30;70.70;;;;;;4915533;29;20060;-74